DEYYG EDXR-EDFH
Flight info
| Callsign | DEYYG |
|---|---|
| Flight time | N/A |
| Altitude | 28000 |
| Route | RIBSO DCT VERED DCT ZEPHE/N0310F290 DCT MARUN/N0312F300 DCT OLGIL |
| Aircraft | TBM9/L-SDFGRWY/S |
Departure
| Time | 2026-04-28 13:16 |
|---|---|
| Airport | Rendsburg-Schachtholm Airfield (EDXR) |
Arrival
| Time | N/A |
|---|---|
| Airport | Frankfurt-Hahn Airport (EDFH) |
| Time | Latitude | Longitude | Altitude | Speed | Heading |
|---|---|---|---|---|---|
| 2026-04-28 13:11 | 54.21696 | 9.59913 | 27 ft | 0 kts | 320° |
| 2026-04-28 13:14 | 54.21707 | 9.59899 | 27 ft | 7 kts | 317° |
| 2026-04-28 13:14 | 54.21760 | 9.59733 | 28 ft | 21 kts | 298° |
| 2026-04-28 13:14 | 54.21837 | 9.59751 | 28 ft | 12 kts | 32° |
| 2026-04-28 13:15 | 54.21975 | 9.59922 | 25 ft | 62 kts | 38° |
| 2026-04-28 13:15 | 54.22515 | 9.60548 | 145 ft | 117 kts | 30° |
| 2026-04-28 13:15 | 54.23367 | 9.61400 | 225 ft | 171 kts | 18° |
| 2026-04-28 13:15 | 54.24620 | 9.61221 | 516 ft | 191 kts | 332° |
| 2026-04-28 13:16 | 54.25495 | 9.59613 | 1043 ft | 190 kts | 292° |
| 2026-04-28 13:16 | 54.25556 | 9.57398 | 1596 ft | 191 kts | 253° |
| 2026-04-28 13:16 | 54.24768 | 9.55609 | 2126 ft | 194 kts | 215° |
| 2026-04-28 13:16 | 54.23476 | 9.55037 | 2668 ft | 198 kts | 178° |
| 2026-04-28 13:17 | 54.22216 | 9.55937 | 3223 ft | 200 kts | 146° |
| 2026-04-28 13:17 | 54.20948 | 9.56757 | 3813 ft | 197 kts | 182° |
| 2026-04-28 13:17 | 54.19838 | 9.55920 | 4887 ft | 161 kts | 218° |
| 2026-04-28 13:17 | 54.18922 | 9.54753 | 5533 ft | 174 kts | 217° |
| 2026-04-28 13:18 | 54.17796 | 9.53793 | 6011 ft | 187 kts | 201° |
| 2026-04-28 13:18 | 54.16537 | 9.53109 | 6601 ft | 191 kts | 199° |
| 2026-04-28 13:18 | 54.15260 | 9.52437 | 7209 ft | 193 kts | 199° |
| 2026-04-28 13:18 | 54.13980 | 9.51741 | 7815 ft | 194 kts | 199° |
| 2026-04-28 13:19 | 54.12695 | 9.51038 | 8421 ft | 195 kts | 200° |
| 2026-04-28 13:19 | 54.11402 | 9.50333 | 9027 ft | 195 kts | 199° |
| 2026-04-28 13:19 | 54.10098 | 9.49620 | 9501 ft | 204 kts | 200° |
| 2026-04-28 13:19 | 54.08658 | 9.48823 | 9520 ft | 229 kts | 200° |
| 2026-04-28 13:20 | 54.07088 | 9.47953 | 9531 ft | 245 kts | 200° |
| 2026-04-28 13:20 | 54.05444 | 9.47055 | 9526 ft | 241 kts | 199° |
| 2026-04-28 13:20 | 54.03976 | 9.46271 | 9490 ft | 202 kts | 199° |
| 2026-04-28 13:20 | 54.02665 | 9.45575 | 8901 ft | 195 kts | 200° |
| 2026-04-28 13:21 | 54.01385 | 9.44875 | 8343 ft | 192 kts | 200° |
| 2026-04-28 13:21 | 54.00121 | 9.44184 | 7788 ft | 190 kts | 200° |
| 2026-04-28 13:21 | 53.98871 | 9.43505 | 7258 ft | 188 kts | 200° |
| 2026-04-28 13:21 | 53.97634 | 9.42833 | 6733 ft | 186 kts | 200° |
| 2026-04-28 13:22 | 53.96408 | 9.42169 | 6196 ft | 184 kts | 200° |
| 2026-04-28 13:22 | 53.95192 | 9.41510 | 5658 ft | 183 kts | 200° |
| 2026-04-28 13:22 | 53.93987 | 9.40857 | 5130 ft | 181 kts | 200° |
| 2026-04-28 13:22 | 53.92793 | 9.40211 | 4634 ft | 178 kts | 200° |
| 2026-04-28 13:23 | 53.91678 | 9.39615 | 4599 ft | 159 kts | 200° |
| 2026-04-28 13:23 | 53.90656 | 9.39069 | 4594 ft | 150 kts | 200° |
| 2026-04-28 13:23 | 53.89682 | 9.38544 | 4595 ft | 145 kts | 200° |
| 2026-04-28 13:23 | 53.88732 | 9.38032 | 4592 ft | 142 kts | 200° |
| 2026-04-28 13:24 | 53.87795 | 9.37525 | 4593 ft | 141 kts | 200° |
| 2026-04-28 13:24 | 53.86861 | 9.37022 | 4594 ft | 140 kts | 200° |
| 2026-04-28 13:24 | 53.85932 | 9.36521 | 4596 ft | 139 kts | 200° |
| 2026-04-28 13:24 | 53.85008 | 9.36024 | 4592 ft | 139 kts | 200° |
| 2026-04-28 13:25 | 53.84085 | 9.35526 | 4593 ft | 139 kts | 200° |
| 2026-04-28 13:25 | 53.83162 | 9.35029 | 4595 ft | 139 kts | 200° |
| 2026-04-28 13:25 | 53.82242 | 9.34534 | 4594 ft | 139 kts | 200° |
| 2026-04-28 13:25 | 53.81321 | 9.34047 | 4594 ft | 139 kts | 197° |
| 2026-04-28 13:26 | 53.80356 | 9.33877 | 4597 ft | 140 kts | 186° |
| 2026-04-28 13:26 | 53.79385 | 9.33743 | 4599 ft | 140 kts | 187° |
| 2026-04-28 13:26 | 53.78411 | 9.33600 | 4598 ft | 141 kts | 187° |
| 2026-04-28 13:26 | 53.77437 | 9.33460 | 4598 ft | 140 kts | 187° |
| 2026-04-28 13:27 | 53.76463 | 9.33320 | 4597 ft | 140 kts | 187° |
| 2026-04-28 13:27 | 53.75492 | 9.33181 | 4597 ft | 140 kts | 187° |
| 2026-04-28 13:27 | 53.74520 | 9.33040 | 4596 ft | 140 kts | 187° |
| 2026-04-28 13:27 | 53.73548 | 9.32901 | 4598 ft | 140 kts | 187° |
| 2026-04-28 13:28 | 53.72573 | 9.32760 | 4599 ft | 141 kts | 187° |
| 2026-04-28 13:28 | 53.71610 | 9.32622 | 4599 ft | 141 kts | 187° |
| 2026-04-28 13:28 | 53.70630 | 9.32479 | 4600 ft | 142 kts | 188° |
| 2026-04-28 13:28 | 53.69649 | 9.32330 | 4600 ft | 141 kts | 188° |
| 2026-04-28 13:29 | 53.68668 | 9.32189 | 4599 ft | 141 kts | 187° |
| 2026-04-28 13:29 | 53.67692 | 9.32049 | 4598 ft | 140 kts | 187° |
| 2026-04-28 13:29 | 53.66719 | 9.31910 | 4597 ft | 140 kts | 187° |
| 2026-04-28 13:29 | 53.65749 | 9.31772 | 4596 ft | 140 kts | 187° |
| 2026-04-28 13:30 | 53.64780 | 9.31633 | 4595 ft | 140 kts | 187° |
| 2026-04-28 13:30 | 53.63810 | 9.31494 | 4595 ft | 140 kts | 187° |
| 2026-04-28 13:30 | 53.62843 | 9.31355 | 4594 ft | 140 kts | 187° |
| 2026-04-28 13:30 | 53.61875 | 9.31217 | 4595 ft | 140 kts | 187° |
| 2026-04-28 13:31 | 53.59408 | 9.30850 | 4625 ft | 218 kts | 187° |
| 2026-04-28 13:31 | 53.57813 | 9.30596 | 4621 ft | 240 kts | 187° |
| 2026-04-28 13:31 | 53.56100 | 9.30342 | 4615 ft | 252 kts | 186° |
| 2026-04-28 13:32 | 53.54326 | 9.30091 | 4614 ft | 258 kts | 186° |
| 2026-04-28 13:32 | 53.52523 | 9.29839 | 4612 ft | 261 kts | 186° |
| 2026-04-28 13:32 | 53.50705 | 9.29584 | 4612 ft | 263 kts | 186° |
| 2026-04-28 13:32 | 53.48879 | 9.29332 | 4612 ft | 264 kts | 186° |
| 2026-04-28 13:33 | 53.47049 | 9.29071 | 4610 ft | 264 kts | 186° |
| 2026-04-28 13:33 | 53.45222 | 9.28815 | 4707 ft | 260 kts | 186° |
| 2026-04-28 13:33 | 53.43464 | 9.28580 | 5181 ft | 247 kts | 186° |
| 2026-04-28 13:33 | 53.41779 | 9.28359 | 5683 ft | 240 kts | 186° |
| 2026-04-28 13:34 | 53.40132 | 9.28121 | 6175 ft | 236 kts | 187° |
| 2026-04-28 13:34 | 53.38500 | 9.27881 | 6584 ft | 238 kts | 187° |
| 2026-04-28 13:34 | 53.36796 | 9.27624 | 6598 ft | 253 kts | 187° |
| 2026-04-28 13:34 | 53.35014 | 9.27359 | 6601 ft | 261 kts | 187° |
| 2026-04-28 13:35 | 53.33195 | 9.27104 | 6640 ft | 264 kts | 186° |
| 2026-04-28 13:35 | 53.31390 | 9.26863 | 6986 ft | 254 kts | 186° |
| 2026-04-28 13:35 | 53.29661 | 9.26641 | 7473 ft | 246 kts | 186° |
| 2026-04-28 13:35 | 53.27974 | 9.26408 | 7944 ft | 242 kts | 186° |
| 2026-04-28 13:36 | 53.26306 | 9.26167 | 8406 ft | 240 kts | 187° |
| 2026-04-28 13:36 | 53.24644 | 9.25929 | 8854 ft | 239 kts | 186° |
| 2026-04-28 13:36 | 53.22971 | 9.25692 | 9140 ft | 247 kts | 187° |
| 2026-04-28 13:36 | 53.21211 | 9.25432 | 9142 ft | 260 kts | 187° |
| 2026-04-28 13:37 | 53.19388 | 9.25144 | 9145 ft | 267 kts | 187° |
| 2026-04-28 13:37 | 53.17541 | 9.24880 | 9145 ft | 271 kts | 186° |
| 2026-04-28 13:37 | 53.15627 | 9.24604 | 9147 ft | 273 kts | 189° |
| 2026-04-28 13:37 | 53.13739 | 9.24250 | 9136 ft | 274 kts | 188° |
| 2026-04-28 13:38 | 53.11863 | 9.24014 | 9136 ft | 274 kts | 186° |
| 2026-04-28 13:38 | 53.09959 | 9.23802 | 9137 ft | 274 kts | 187° |
| 2026-04-28 13:38 | 53.08061 | 9.23541 | 9136 ft | 274 kts | 187° |
| 2026-04-28 13:38 | 53.06165 | 9.23267 | 9136 ft | 273 kts | 187° |
| 2026-04-28 13:39 | 53.04261 | 9.23083 | 9137 ft | 275 kts | 184° |
| 2026-04-28 13:39 | 53.02351 | 9.22903 | 9140 ft | 275 kts | 187° |
| 2026-04-28 13:39 | 53.00444 | 9.22564 | 9141 ft | 276 kts | 188° |
| 2026-04-28 13:39 | 52.98535 | 9.22250 | 9137 ft | 276 kts | 186° |
| 2026-04-28 13:40 | 52.96620 | 9.22006 | 9135 ft | 276 kts | 186° |
| 2026-04-28 13:40 | 52.94703 | 9.21749 | 9137 ft | 276 kts | 186° |
| 2026-04-28 13:40 | 52.92790 | 9.21478 | 9136 ft | 276 kts | 186° |
| 2026-04-28 13:40 | 52.90895 | 9.20992 | 9145 ft | 275 kts | 198° |
| 2026-04-28 13:41 | 52.89164 | 9.19676 | 9155 ft | 274 kts | 213° |
| 2026-04-28 13:41 | 52.87699 | 9.17680 | 9155 ft | 273 kts | 228° |
| 2026-04-28 13:41 | 52.86449 | 9.15310 | 9153 ft | 273 kts | 230° |
| 2026-04-28 13:41 | 52.85173 | 9.12970 | 9152 ft | 274 kts | 229° |
| 2026-04-28 13:42 | 52.83907 | 9.10617 | 9200 ft | 272 kts | 230° |
| 2026-04-28 13:42 | 52.82657 | 9.08275 | 9257 ft | 272 kts | 230° |
| 2026-04-28 13:42 | 52.81403 | 9.05931 | 9255 ft | 273 kts | 230° |
| 2026-04-28 13:42 | 52.80145 | 9.03580 | 9258 ft | 274 kts | 230° |
| 2026-04-28 13:43 | 52.78880 | 9.01228 | 9257 ft | 273 kts | 230° |
| 2026-04-28 13:43 | 52.77616 | 8.98881 | 9251 ft | 273 kts | 230° |
| 2026-04-28 13:43 | 52.76352 | 8.96532 | 9251 ft | 273 kts | 230° |
| 2026-04-28 13:43 | 52.75088 | 8.94188 | 9256 ft | 273 kts | 230° |
| 2026-04-28 13:44 | 52.73826 | 8.91846 | 9250 ft | 273 kts | 230° |
| 2026-04-28 13:44 | 52.72560 | 8.89499 | 9256 ft | 274 kts | 230° |
| 2026-04-28 13:44 | 52.71292 | 8.87154 | 9258 ft | 274 kts | 230° |
| 2026-04-28 13:44 | 52.70024 | 8.84810 | 9256 ft | 274 kts | 230° |
| 2026-04-28 13:45 | 52.68755 | 8.82464 | 9256 ft | 274 kts | 230° |
| 2026-04-28 13:45 | 52.67484 | 8.80122 | 9253 ft | 274 kts | 229° |
| 2026-04-28 13:45 | 52.66215 | 8.77784 | 9249 ft | 274 kts | 229° |
| 2026-04-28 13:45 | 52.64948 | 8.75449 | 9256 ft | 273 kts | 230° |
| 2026-04-28 13:46 | 52.63681 | 8.73119 | 9256 ft | 273 kts | 229° |
| 2026-04-28 13:46 | 52.62412 | 8.70785 | 9254 ft | 273 kts | 230° |
| 2026-04-28 13:46 | 52.61144 | 8.68454 | 9256 ft | 273 kts | 229° |
| 2026-04-28 13:46 | 52.59876 | 8.66126 | 9252 ft | 273 kts | 229° |
| 2026-04-28 13:47 | 52.58576 | 8.63850 | 9253 ft | 273 kts | 223° |
| 2026-04-28 13:47 | 52.56980 | 8.62155 | 9253 ft | 275 kts | 207° |
| 2026-04-28 13:47 | 52.55164 | 8.61179 | 9253 ft | 276 kts | 192° |
| 2026-04-28 13:47 | 52.53248 | 8.61010 | 9252 ft | 277 kts | 179° |
| 2026-04-28 13:48 | 52.51320 | 8.61121 | 9257 ft | 277 kts | 180° |
| 2026-04-28 13:48 | 52.49391 | 8.61163 | 9258 ft | 277 kts | 181° |
| 2026-04-28 13:48 | 52.47464 | 8.61213 | 9256 ft | 277 kts | 180° |
| 2026-04-28 13:48 | 52.45532 | 8.61296 | 9253 ft | 277 kts | 180° |
| 2026-04-28 13:49 | 52.43603 | 8.61375 | 9256 ft | 277 kts | 180° |
| 2026-04-28 13:49 | 52.41675 | 8.61447 | 9256 ft | 277 kts | 180° |
| 2026-04-28 13:49 | 52.39745 | 8.61519 | 9255 ft | 277 kts | 180° |
| 2026-04-28 13:49 | 52.37817 | 8.61592 | 9255 ft | 277 kts | 180° |
| 2026-04-28 13:50 | 52.35889 | 8.61660 | 9255 ft | 277 kts | 180° |
| 2026-04-28 13:50 | 52.33959 | 8.61731 | 9255 ft | 277 kts | 180° |
| 2026-04-28 13:50 | 52.32034 | 8.61803 | 9256 ft | 277 kts | 180° |
| 2026-04-28 13:50 | 52.30105 | 8.61875 | 9256 ft | 277 kts | 180° |
| 2026-04-28 13:51 | 52.28180 | 8.61945 | 9255 ft | 277 kts | 180° |
| 2026-04-28 13:51 | 52.26246 | 8.62015 | 9258 ft | 277 kts | 180° |
| 2026-04-28 13:51 | 52.24316 | 8.62087 | 9255 ft | 278 kts | 180° |
| 2026-04-28 13:51 | 52.22384 | 8.62162 | 9256 ft | 278 kts | 180° |
| 2026-04-28 13:52 | 52.20454 | 8.62229 | 9256 ft | 277 kts | 180° |
| 2026-04-28 13:52 | 52.18524 | 8.62297 | 9256 ft | 277 kts | 180° |
| 2026-04-28 13:52 | 52.16595 | 8.62370 | 9256 ft | 277 kts | 180° |
| 2026-04-28 13:52 | 52.14662 | 8.62442 | 9256 ft | 277 kts | 180° |